createdAt,value
2023-06-19T00:01:20.872Z,43.15
2023-06-19T00:03:48.617Z,45.58
2023-06-19T00:06:16.362Z,43.47
2023-06-19T00:09:02.148Z,43.68
2023-06-19T00:11:29.908Z,42.73
2023-06-19T00:13:58.932Z,42.37
2023-06-19T00:16:27.186Z,43.17
2023-06-19T00:18:56.730Z,44.44
2023-06-19T00:21:25.501Z,45.20
2023-06-19T00:23:53.730Z,44.87
2023-06-19T00:26:23.507Z,46.17
2023-06-19T00:28:51.375Z,49.65
2023-06-19T00:31:20.716Z,46.13
2023-06-19T00:33:49.210Z,51.37
2023-06-19T00:36:21.109Z,48.95
2023-06-19T00:38:49.444Z,46.23
2023-06-19T00:41:17.902Z,46.74
2023-06-19T00:43:46.210Z,45.76
2023-06-19T00:46:14.339Z,51.76
2023-06-19T00:48:43.589Z,46.11
2023-06-19T00:51:11.524Z,49.11
2023-06-19T00:53:39.220Z,49.89
2023-06-19T00:56:07.677Z,51.52
2023-06-19T00:58:36.254Z,49.56
2023-06-19T01:01:09.377Z,48.91
2023-06-19T01:03:38.560Z,49.25
2023-06-19T01:06:12.837Z,45.95
2023-06-19T01:08:47.858Z,46.66
2023-06-19T01:11:26.853Z,49.55
2023-06-19T01:13:59.340Z,50.80
2023-06-19T01:16:27.779Z,51.43
2023-06-19T01:18:55.694Z,50.51
2023-06-19T01:21:25.009Z,47.90
2023-06-19T01:23:54.113Z,48.60
2023-06-19T01:26:27.507Z,47.83
2023-06-19T01:28:56.558Z,51.31
2023-06-19T01:31:27.696Z,48.75
2023-06-19T01:33:56.371Z,48.07
2023-06-19T01:36:26.118Z,48.52
2023-06-19T01:38:57.063Z,48.97
2023-06-19T01:41:25.079Z,47.67
2023-06-19T01:43:53.696Z,48.66
2023-06-19T01:46:21.844Z,49.23
2023-06-19T01:48:49.641Z,47.62
2023-06-19T01:51:18.243Z,48.29
2023-06-19T01:53:45.909Z,48.70
2023-06-19T01:56:15.026Z,47.95
2023-06-19T01:58:42.718Z,48.10
2023-06-19T02:01:10.410Z,47.51
2023-06-19T02:03:38.210Z,49.59
2023-06-19T02:06:06.081Z,47.32
2023-06-19T02:11:20.800Z,47.59
2023-06-19T02:13:48.470Z,46.38
2023-06-19T02:16:16.664Z,46.88
2023-06-19T02:18:44.401Z,48.80
2023-06-19T02:21:12.168Z,49.14
2023-06-19T02:23:39.892Z,49.31
2023-06-19T02:26:07.578Z,48.97
2023-06-19T02:28:36.624Z,51.59
2023-06-19T02:31:04.416Z,48.89
2023-06-19T02:33:33.533Z,47.41
2023-06-19T02:36:01.307Z,50.08
2023-06-19T02:38:30.605Z,53.08
2023-06-19T02:41:01.592Z,51.28
2023-06-19T02:43:29.319Z,50.93
2023-06-19T02:45:58.553Z,51.84
2023-06-19T02:48:26.521Z,52.45
2023-06-19T02:50:54.190Z,53.98
2023-06-19T02:53:21.864Z,54.49
2023-06-19T02:55:49.550Z,54.61
2023-06-19T02:58:17.245Z,54.94
2023-06-19T03:00:45.030Z,54.21
2023-06-19T03:03:14.354Z,52.96
2023-06-19T03:05:42.811Z,53.22
2023-06-19T03:08:10.551Z,54.19
2023-06-19T03:10:38.345Z,53.17
2023-06-19T03:13:06.030Z,56.20
2023-06-19T03:15:33.774Z,56.47
2023-06-19T03:18:04.449Z,54.18
2023-06-19T03:20:33.879Z,54.52
2023-06-19T03:23:01.577Z,54.46
2023-06-19T03:25:34.667Z,50.85
2023-06-19T03:28:02.632Z,52.45
2023-06-19T03:30:30.328Z,52.88
2023-06-19T03:32:58.069Z,54.79
2023-06-19T03:35:25.772Z,53.33
2023-06-19T03:37:55.229Z,54.97
2023-06-19T03:40:23.849Z,54.63
2023-06-19T03:42:51.782Z,55.14
2023-06-19T03:45:19.470Z,56.29
2023-06-19T03:47:47.186Z,54.26
2023-06-19T03:50:21.393Z,53.39
2023-06-19T03:52:50.033Z,53.26
2023-06-19T03:55:19.818Z,52.36
2023-06-19T03:57:47.580Z,54.49
2023-06-19T04:00:16.741Z,53.40
2023-06-19T04:02:44.497Z,54.29
2023-06-19T04:05:12.221Z,54.43
2023-06-19T04:07:39.941Z,53.86
2023-06-19T04:10:09.233Z,52.31
2023-06-19T04:12:38.333Z,53.63
2023-06-19T04:15:07.116Z,52.83
2023-06-19T04:17:34.894Z,51.83
2023-06-19T04:20:02.642Z,50.70
2023-06-19T04:22:30.322Z,52.33
2023-06-19T04:24:58.010Z,51.95
2023-06-19T04:27:25.692Z,52.07
2023-06-19T04:29:54.835Z,51.92
2023-06-19T04:32:23.045Z,50.86
2023-06-19T04:34:50.791Z,56.05
2023-06-19T04:37:20.202Z,52.26
2023-06-19T04:39:48.120Z,50.78
2023-06-19T04:42:20.634Z,52.24
2023-06-19T04:44:48.460Z,54.45
2023-06-19T04:47:19.750Z,53.37
2023-06-19T04:49:47.768Z,54.27
2023-06-19T04:52:15.591Z,54.48
2023-06-19T04:54:43.260Z,54.58
2023-06-19T04:57:30.933Z,56.78
2023-06-19T04:59:58.974Z,54.94
2023-06-19T05:02:28.196Z,56.01
2023-06-19T05:04:55.891Z,58.08
2023-06-19T05:07:23.901Z,55.47
2023-06-19T05:09:51.577Z,55.36
2023-06-19T05:12:19.307Z,53.64
2023-06-19T05:14:46.996Z,57.17
2023-06-19T05:17:14.801Z,58.21
2023-06-19T05:19:44.256Z,58.93
2023-06-19T05:22:11.913Z,59.78
2023-06-19T05:24:39.931Z,56.06
2023-06-19T05:27:08.336Z,60.46
2023-06-19T05:29:36.150Z,56.09
2023-06-19T05:32:04.202Z,60.05
2023-06-19T05:34:31.933Z,57.48
2023-06-19T05:37:04.627Z,61.29
2023-06-19T05:39:32.339Z,56.90
2023-06-19T05:42:00.209Z,58.68
2023-06-19T05:44:28.126Z,57.76
2023-06-19T05:47:00.603Z,53.95
2023-06-19T05:49:28.313Z,63.09
2023-06-19T05:52:00.097Z,55.74
2023-06-19T05:54:29.363Z,58.74
2023-06-19T05:56:57.035Z,59.29
2023-06-19T05:59:27.744Z,56.30
2023-06-19T06:01:56.797Z,57.54
2023-06-19T06:04:24.630Z,59.18
2023-06-19T06:06:52.542Z,56.07
2023-06-19T06:09:21.639Z,54.40
2023-06-19T06:11:50.863Z,56.35
2023-06-19T06:14:19.132Z,54.73
2023-06-19T06:16:46.961Z,53.44
2023-06-19T06:19:15.158Z,55.83
2023-06-19T06:21:42.909Z,56.58
2023-06-19T06:24:10.679Z,56.36
2023-06-19T06:26:38.914Z,55.21
2023-06-19T06:29:08.076Z,56.04
2023-06-19T06:31:36.005Z,54.87
2023-06-19T06:34:03.733Z,63.69
2023-06-19T06:39:03.882Z,67.95
2023-06-19T06:41:31.926Z,59.86
2023-06-19T06:43:59.816Z,62.25
2023-06-19T06:46:29.246Z,62.69
2023-06-19T06:48:56.979Z,64.32
2023-06-19T06:51:24.781Z,66.46
2023-06-19T06:53:52.919Z,60.71
2023-06-19T06:56:20.994Z,64.41
2023-06-19T06:58:49.173Z,57.65
2023-06-19T07:01:17.154Z,55.22
2023-06-19T07:03:46.525Z,58.20
2023-06-19T07:06:14.356Z,58.66
2023-06-19T07:08:42.531Z,69.57
2023-06-19T07:11:10.268Z,66.11
2023-06-19T07:13:37.933Z,69.92
2023-06-19T07:16:06.128Z,58.22
2023-06-19T07:18:34.564Z,52.97
2023-06-19T07:21:03.717Z,55.08
2023-06-19T07:23:31.402Z,54.50
2023-06-19T07:26:00.259Z,55.15
2023-06-19T07:28:28.284Z,55.11
2023-06-19T07:30:55.955Z,57.92
2023-06-19T07:33:23.569Z,56.40
2023-06-19T07:35:51.437Z,54.75
2023-06-19T07:38:20.549Z,61.10
2023-06-19T07:40:48.392Z,65.33
2023-06-19T07:43:16.385Z,56.73
2023-06-19T07:45:44.167Z,53.53
2023-06-19T07:48:11.936Z,51.91
2023-06-19T07:50:39.600Z,53.14
2023-06-19T07:53:07.505Z,55.79
2023-06-19T07:55:36.802Z,58.57
2023-06-19T07:58:04.556Z,60.65
2023-06-19T08:00:49.062Z,59.68
2023-06-19T08:03:16.808Z,63.68
2023-06-19T08:05:44.774Z,59.33
2023-06-19T08:08:15.228Z,54.46
2023-06-19T08:10:44.340Z,52.13
2023-06-19T08:13:12.757Z,52.94
2023-06-19T08:15:40.382Z,58.18
2023-06-19T08:18:08.078Z,59.09
2023-06-19T08:20:35.735Z,52.20
2023-06-19T08:23:05.168Z,51.90
2023-06-19T08:25:34.249Z,54.40
2023-06-19T08:28:03.921Z,54.83
2023-06-19T08:30:31.795Z,52.90
2023-06-19T08:32:59.412Z,53.37
2023-06-19T08:35:27.222Z,55.43
2023-06-19T08:37:57.305Z,57.10
2023-06-19T08:40:25.749Z,56.24
2023-06-19T08:42:54.694Z,56.58
2023-06-19T08:45:24.084Z,57.40
2023-06-19T08:47:52.102Z,53.10
2023-06-19T08:50:21.716Z,50.83
2023-06-19T08:52:49.598Z,56.53
2023-06-19T08:55:17.340Z,51.27
2023-06-19T08:57:45.225Z,54.51
2023-06-19T09:00:13.892Z,52.46
2023-06-19T09:02:44.459Z,49.80
2023-06-19T09:05:14.545Z,52.67
2023-06-19T09:07:42.493Z,49.80
2023-06-19T09:10:17.023Z,49.80
2023-06-19T09:12:45.568Z,51.29
2023-06-19T09:15:14.245Z,52.08
2023-06-19T09:17:43.356Z,49.42
2023-06-19T09:20:12.808Z,47.75
2023-06-19T09:22:40.639Z,50.07
2023-06-19T09:25:11.349Z,49.17
2023-06-19T09:27:39.110Z,50.42
2023-06-19T09:30:09.137Z,51.73
2023-06-19T09:32:37.564Z,49.31
2023-06-19T09:35:07.565Z,47.35
2023-06-19T09:37:35.850Z,47.73
2023-06-19T09:40:10.969Z,47.02
2023-06-19T09:42:43.486Z,53.99
2023-06-19T09:45:13.215Z,49.12
2023-06-19T09:47:42.060Z,48.29
2023-06-19T09:50:14.534Z,49.47
2023-06-19T09:52:42.591Z,47.69
2023-06-19T09:55:13.898Z,48.08
2023-06-19T09:57:42.839Z,51.96
2023-06-19T10:00:13.668Z,49.51
2023-06-19T10:02:51.306Z,48.50
2023-06-19T10:05:31.447Z,45.00
2023-06-19T10:08:01.117Z,47.21
2023-06-19T10:10:33.154Z,50.64
2023-06-19T10:13:13.950Z,49.68
2023-06-19T10:15:43.520Z,50.61
2023-06-19T10:18:17.318Z,52.11
2023-06-19T10:20:47.768Z,48.80
2023-06-19T10:23:20.227Z,47.97
2023-06-19T10:25:50.338Z,47.94
2023-06-19T10:28:19.321Z,47.04
2023-06-19T10:30:47.388Z,47.63
2023-06-19T10:33:15.068Z,46.97
2023-06-19T10:35:43.170Z,51.21
2023-06-19T10:38:12.506Z,48.87
2023-06-19T10:40:40.534Z,49.78
2023-06-19T10:43:08.253Z,50.00
2023-06-19T10:45:36.097Z,51.53
2023-06-19T10:48:05.234Z,52.49
2023-06-19T10:50:37.189Z,53.09
2023-06-19T10:53:05.109Z,48.32
2023-06-19T10:55:36.456Z,48.10
2023-06-19T10:58:04.532Z,47.70
2023-06-19T11:00:34.960Z,47.50
2023-06-19T11:03:02.730Z,46.77
2023-06-19T11:05:31.000Z,48.83
2023-06-19T11:07:59.999Z,48.10
2023-06-19T11:10:29.292Z,47.68
2023-06-19T11:12:59.896Z,50.37
2023-06-19T11:15:31.824Z,47.17
2023-06-19T11:18:00.147Z,48.09
2023-06-19T11:20:28.006Z,48.75
2023-06-19T11:23:01.992Z,47.63
2023-06-19T11:25:37.927Z,48.28
2023-06-19T11:28:08.089Z,44.13
2023-06-19T11:31:00.486Z,41.86
2023-06-19T11:33:28.355Z,48.52
2023-06-19T11:35:56.783Z,48.01
2023-06-19T11:38:25.802Z,47.29
2023-06-19T11:40:54.301Z,45.60
2023-06-19T11:43:30.876Z,44.80
2023-06-19T11:46:04.010Z,48.00
2023-06-19T11:48:31.815Z,46.17
2023-06-19T11:50:59.918Z,47.51
2023-06-19T11:53:27.675Z,45.06
2023-06-19T11:55:55.544Z,44.76
2023-06-19T11:58:23.841Z,43.88
2023-06-19T12:00:53.268Z,39.68
2023-06-19T12:03:21.231Z,40.97
2023-06-19T12:05:49.160Z,41.88
2023-06-19T12:08:17.094Z,38.22
2023-06-19T12:10:44.968Z,42.55
2023-06-19T12:13:18.757Z,41.60
2023-06-19T12:15:47.089Z,42.08
2023-06-19T12:18:17.892Z,42.21
2023-06-19T12:20:45.960Z,42.85
2023-06-19T12:23:23.108Z,37.57
2023-06-19T12:25:51.265Z,36.82
2023-06-19T12:28:19.818Z,41.66
2023-06-19T12:30:49.338Z,39.98
2023-06-19T12:33:19.308Z,43.36
2023-06-19T12:35:47.498Z,40.97
2023-06-19T12:38:15.439Z,40.85
2023-06-19T12:40:43.771Z,42.82
2023-06-19T12:43:11.451Z,44.10
2023-06-19T12:45:39.079Z,44.67
2023-06-19T12:48:07.173Z,44.27
2023-06-19T12:50:36.639Z,43.30
2023-06-19T12:53:04.766Z,43.76
2023-06-19T12:55:32.604Z,43.22
2023-06-19T12:58:00.286Z,41.97
2023-06-19T13:00:27.933Z,42.21
2023-06-19T13:02:55.781Z,42.62
2023-06-19T13:05:23.836Z,41.88
2023-06-19T13:07:53.044Z,38.30
2023-06-19T13:10:20.794Z,35.28
2023-06-19T13:12:48.783Z,37.87
2023-06-19T13:15:16.821Z,40.65
2023-06-19T13:17:44.508Z,37.62
2023-06-19T13:20:12.647Z,36.03
2023-06-19T13:22:56.740Z,37.95
2023-06-19T13:25:24.907Z,38.82
2023-06-19T13:27:52.710Z,36.40
2023-06-19T13:30:20.731Z,39.18
2023-06-19T13:32:48.622Z,38.57
2023-06-19T13:35:16.467Z,38.14
2023-06-19T13:37:44.708Z,37.50
2023-06-19T13:40:14.641Z,36.78
2023-06-19T13:42:42.312Z,33.15
2023-06-19T13:45:10.536Z,34.79
2023-06-19T13:47:39.615Z,31.55
2023-06-19T13:50:08.757Z,30.55
2023-06-19T13:52:37.459Z,27.86
2023-06-19T13:55:05.991Z,27.92
2023-06-19T13:57:35.114Z,30.08
2023-06-19T14:00:04.208Z,31.38
2023-06-19T14:02:32.228Z,32.74
2023-06-19T14:05:01.064Z,30.35
2023-06-19T14:07:28.912Z,32.70
2023-06-19T14:09:56.645Z,32.63
2023-06-19T14:12:24.320Z,32.72
2023-06-19T14:14:54.019Z,31.38
2023-06-19T14:17:22.623Z,32.43
2023-06-19T14:19:52.105Z,30.89
2023-06-19T14:22:20.252Z,29.09
2023-06-19T14:24:48.368Z,27.61
2023-06-19T14:27:16.180Z,28.86
2023-06-19T14:29:43.848Z,31.02
2023-06-19T14:32:13.380Z,26.36
2023-06-19T14:34:41.185Z,31.47
2023-06-19T14:37:09.303Z,31.25
2023-06-19T14:39:37.231Z,30.90
2023-06-19T14:42:05.283Z,33.64
2023-06-19T14:44:35.207Z,33.59
2023-06-19T14:47:02.938Z,30.56
2023-06-19T14:49:32.314Z,33.60
2023-06-19T14:52:00.012Z,31.43
2023-06-19T14:54:27.792Z,29.00
2023-06-19T14:56:55.451Z,26.92
2023-06-19T14:59:23.298Z,27.71
2023-06-19T15:01:51.754Z,30.51
2023-06-19T15:04:19.865Z,29.89
2023-06-19T15:06:49.035Z,27.03
2023-06-19T15:09:16.758Z,27.76
2023-06-19T15:11:44.408Z,32.43
2023-06-19T15:14:12.311Z,28.52
2023-06-19T15:16:40.288Z,25.93
2023-06-19T15:19:08.318Z,28.37
2023-06-19T15:21:39.428Z,27.62
2023-06-19T15:24:09.676Z,30.02
2023-06-19T15:26:58.229Z,30.04
2023-06-19T15:29:26.147Z,28.03
2023-06-19T15:31:54.094Z,27.43
2023-06-19T15:34:21.751Z,26.25
2023-06-19T15:36:49.743Z,26.19
2023-06-19T15:39:18.784Z,25.98
2023-06-19T15:41:47.497Z,24.41
2023-06-19T15:44:16.000Z,24.26
2023-06-19T15:46:44.053Z,28.86
2023-06-19T15:49:13.875Z,30.57
2023-06-19T15:51:41.771Z,31.13
2023-06-19T15:54:09.580Z,31.37
2023-06-19T15:56:40.457Z,30.73
2023-06-19T15:59:08.153Z,29.32
2023-06-19T16:01:35.892Z,27.47
2023-06-19T16:04:03.908Z,29.12
2023-06-19T16:06:31.764Z,29.44
2023-06-19T16:08:59.465Z,28.00
2023-06-19T16:11:27.266Z,27.21
2023-06-19T16:13:56.598Z,24.38
2023-06-19T16:16:24.399Z,25.16
2023-06-19T16:18:52.145Z,23.81
2023-06-19T16:21:19.847Z,24.23
2023-06-19T16:23:47.658Z,25.05
2023-06-19T16:26:16.023Z,28.09
2023-06-19T16:28:43.774Z,30.26
2023-06-19T16:31:13.229Z,30.41
2023-06-19T16:33:41.082Z,28.00
2023-06-19T16:36:11.248Z,25.64
2023-06-19T16:38:39.382Z,31.26
2023-06-19T16:41:07.433Z,32.12
2023-06-19T16:43:35.485Z,34.47
2023-06-19T16:46:03.573Z,30.40
2023-06-19T16:48:32.914Z,30.34
2023-06-19T16:51:01.062Z,28.28
2023-06-19T16:53:28.944Z,30.04
2023-06-19T16:55:57.769Z,28.27
2023-06-19T16:58:25.573Z,26.76
2023-06-19T17:00:53.624Z,25.97
2023-06-19T17:03:21.865Z,27.67
2023-06-19T17:08:48.882Z,28.96
2023-06-19T17:11:20.515Z,27.30
2023-06-19T17:13:49.079Z,27.87
2023-06-19T17:16:17.008Z,28.12
2023-06-19T17:18:44.957Z,27.26
2023-06-19T17:21:14.474Z,30.46
2023-06-19T17:23:42.228Z,29.72
2023-06-19T17:26:09.944Z,31.18
2023-06-19T17:28:37.882Z,28.56
2023-06-19T17:31:08.425Z,30.91
2023-06-19T17:33:36.578Z,30.52
2023-06-19T17:36:05.247Z,31.76
2023-06-19T17:38:35.633Z,32.60
2023-06-19T17:41:03.701Z,32.02
2023-06-19T17:43:31.395Z,31.70
2023-06-19T17:45:59.159Z,33.14
2023-06-19T17:48:27.203Z,31.29
2023-06-19T17:50:55.432Z,31.22
2023-06-19T17:53:23.506Z,32.84
2023-06-19T17:55:53.282Z,32.56
2023-06-19T17:58:22.642Z,36.87
2023-06-19T18:00:50.368Z,34.46
2023-06-19T18:03:18.199Z,37.80
2023-06-19T18:05:46.278Z,35.43
2023-06-19T18:08:14.043Z,39.76
2023-06-19T18:10:42.382Z,39.99
2023-06-19T18:13:11.628Z,39.23
2023-06-19T18:24:39.270Z,37.68
2023-06-19T18:27:07.807Z,41.79
2023-06-19T18:29:37.148Z,42.30
2023-06-19T18:32:05.393Z,45.13
2023-06-19T18:34:33.346Z,45.54
2023-06-19T18:37:01.304Z,47.80
2023-06-19T18:39:29.107Z,45.70
2023-06-19T18:41:56.813Z,48.68
2023-06-19T18:44:24.526Z,48.30
2023-06-19T18:46:53.591Z,46.34
2023-06-19T18:49:21.563Z,41.04
2023-06-19T18:51:49.262Z,45.14
2023-06-19T18:54:17.004Z,43.75
2023-06-19T18:56:44.767Z,43.44
2023-06-19T18:59:12.519Z,47.59
2023-06-19T19:01:40.646Z,48.18
2023-06-19T19:04:09.753Z,51.79
2023-06-19T19:06:37.702Z,53.36
2023-06-19T19:09:05.400Z,54.79
2023-06-19T19:11:33.516Z,55.67
2023-06-19T19:14:01.215Z,54.53
2023-06-19T19:16:29.070Z,53.28
2023-06-19T19:18:56.922Z,54.34
2023-06-19T19:21:25.981Z,57.38
2023-06-19T19:23:53.668Z,56.56
2023-06-19T19:26:21.477Z,56.99
2023-06-19T19:28:49.154Z,58.49
2023-06-19T19:31:16.875Z,58.98
2023-06-19T19:33:44.561Z,58.77
2023-06-19T19:36:12.417Z,59.22
2023-06-19T19:38:41.495Z,61.84
2023-06-19T19:41:09.566Z,62.43
2023-06-19T19:43:37.778Z,62.49
2023-06-19T19:46:05.639Z,58.56
2023-06-19T19:48:33.488Z,53.69
2023-06-19T19:51:01.185Z,57.98
2023-06-19T19:53:29.282Z,57.16
2023-06-19T19:55:58.486Z,60.83
2023-06-19T19:58:27.145Z,61.52
2023-06-19T20:00:54.922Z,60.61
2023-06-19T20:03:22.936Z,61.51
2023-06-19T20:05:50.735Z,64.37
2023-06-19T20:08:18.425Z,63.47
2023-06-19T20:10:46.668Z,63.47
2023-06-19T20:13:15.962Z,65.17
2023-06-19T20:15:43.687Z,67.08
2023-06-19T20:18:11.405Z,63.76
2023-06-19T20:20:39.154Z,57.40
2023-06-19T20:23:07.606Z,62.86
2023-06-19T20:25:36.520Z,63.55
2023-06-19T20:28:08.628Z,59.89
2023-06-19T20:30:56.599Z,61.03
2023-06-19T20:33:24.448Z,64.27
2023-06-19T20:35:52.538Z,65.05
2023-06-19T20:38:21.394Z,67.97
2023-06-19T20:40:49.668Z,62.13
2023-06-19T20:43:17.462Z,58.58
2023-06-19T20:45:45.134Z,62.52
2023-06-19T20:48:14.362Z,65.51
2023-06-19T20:50:42.071Z,67.57
2023-06-19T20:53:09.833Z,67.25
2023-06-19T20:55:37.732Z,64.42
2023-06-19T20:58:06.046Z,59.68
2023-06-19T21:00:34.462Z,61.34
2023-06-19T21:03:04.179Z,70.25
2023-06-19T21:05:33.493Z,66.55
2023-06-19T21:08:01.393Z,65.35
2023-06-19T21:10:29.565Z,62.11
2023-06-19T21:13:04.468Z,65.06
2023-06-19T21:15:38.545Z,65.98
2023-06-19T21:18:06.300Z,66.24
2023-06-19T21:20:35.431Z,66.46
2023-06-19T21:23:03.088Z,64.73
2023-06-19T21:25:30.944Z,67.19
2023-06-19T21:27:59.439Z,67.83
2023-06-19T21:30:27.356Z,66.81
2023-06-19T21:32:55.536Z,68.05
2023-06-19T21:35:23.398Z,70.58
2023-06-19T21:37:52.402Z,65.73
2023-06-19T21:40:20.002Z,67.37
2023-06-19T21:42:48.200Z,66.11
2023-06-19T21:45:19.150Z,68.02
2023-06-19T21:47:49.055Z,70.98
2023-06-19T21:50:20.742Z,72.52
2023-06-19T21:52:49.861Z,73.94
2023-06-19T21:55:19.188Z,72.71
2023-06-19T21:57:59.396Z,76.14
2023-06-19T22:00:29.432Z,72.73
2023-06-19T22:02:57.959Z,73.79
2023-06-19T22:05:26.245Z,69.50
2023-06-19T22:07:54.500Z,69.74
2023-06-19T22:10:24.777Z,69.05
2023-06-19T22:12:53.042Z,71.53
2023-06-19T22:15:24.418Z,72.67
2023-06-19T22:17:52.454Z,68.67
2023-06-19T22:20:20.426Z,67.56
2023-06-19T22:22:48.790Z,66.69
2023-06-19T22:25:17.497Z,66.69
2023-06-19T22:30:22.166Z,65.13
2023-06-19T22:32:49.980Z,65.79
2023-06-19T22:35:17.657Z,65.35
2023-06-19T22:37:45.777Z,66.24
2023-06-19T22:40:14.453Z,66.35
2023-06-19T22:42:42.667Z,67.65
2023-06-19T22:45:11.808Z,67.90
2023-06-19T22:47:41.555Z,66.01
2023-06-19T22:50:10.884Z,63.85
2023-06-19T22:52:38.894Z,66.00
2023-06-19T22:55:07.267Z,67.33
2023-06-19T22:57:36.237Z,65.29
2023-06-19T23:00:08.852Z,64.23
2023-06-19T23:02:36.627Z,70.70
2023-06-19T23:05:06.570Z,67.10
2023-06-19T23:07:34.317Z,66.59
2023-06-19T23:10:03.412Z,65.93
2023-06-19T23:12:31.070Z,67.91
2023-06-19T23:14:58.794Z,67.77
2023-06-19T23:17:26.638Z,67.04
2023-06-19T23:19:59.401Z,68.77
2023-06-19T23:22:28.777Z,68.30
2023-06-19T23:24:56.467Z,67.42
2023-06-19T23:27:24.174Z,65.88
2023-06-19T23:29:52.748Z,66.80
2023-06-19T23:32:21.724Z,67.28
2023-06-19T23:34:50.037Z,67.60
2023-06-19T23:37:17.711Z,66.53
2023-06-19T23:39:46.917Z,67.53
2023-06-19T23:42:14.625Z,68.77
2023-06-19T23:44:42.300Z,65.61
2023-06-19T23:47:09.963Z,65.41
2023-06-19T23:49:39.257Z,70.32
2023-06-19T23:52:07.787Z,70.29
2023-06-19T23:54:35.442Z,68.63
2023-06-19T23:57:05.012Z,68.10
2023-06-19T23:59:32.654Z,71.40
